TimeEDT,TemperatureF,Dew PointF,Humidity,Sea Level PressureIn,VisibilityMPH,Wind Direction,Wind SpeedMPH,Gust SpeedMPH,PrecipitationIn,Events,Conditions,WindDirDegrees,DateUTC
12:13 AM,37.4,33.8,87,30.14,5.0,ESE,9.2,-,0.00,Rain,Light Rain,120,2013-04-18 04:13:00
12:45 AM,37.4,35.6,93,30.11,6.0,ESE,8.1,-,0.00,,Overcast,120,2013-04-18 04:45:00
12:54 AM,37.0,36.0,96,30.12,6.0,ESE,11.5,-,0.00,,Overcast,110,2013-04-18 04:54:00
1:24 AM,37.4,37.4,100,30.07,10.0,ESE,9.2,-,N/A,,Overcast,110,2013-04-18 05:24:00
1:54 AM,39.0,37.9,96,30.06,9.0,East,6.9,-,N/A,,Overcast,100,2013-04-18 05:54:00
2:44 AM,39.2,37.4,93,30.02,8.0,ESE,10.4,-,0.00,Rain,Light Rain,110,2013-04-18 06:44:00
2:54 AM,39.0,37.9,96,30.04,10.0,East,8.1,-,0.00,,Overcast,100,2013-04-18 06:54:00
3:13 AM,39.2,37.4,93,30.00,10.0,East,6.9,-,N/A,,Overcast,100,2013-04-18 07:13:00
3:54 AM,39.9,37.0,89,30.00,10.0,ESE,10.4,-,0.00,,Overcast,110,2013-04-18 07:54:00
4:13 AM,39.2,37.4,93,29.96,10.0,ESE,11.5,-,N/A,,Overcast,110,2013-04-18 08:13:00
4:22 AM,39.2,37.4,93,29.95,10.0,ESE,10.4,-,N/A,,Overcast,120,2013-04-18 08:22:00
4:31 AM,39.2,37.4,93,29.95,10.0,ESE,11.5,20.7,N/A,,Overcast,110,2013-04-18 08:31:00
4:54 AM,39.0,37.0,93,29.95,10.0,ESE,11.5,-,N/A,,Overcast,120,2013-04-18 08:54:00
5:28 AM,39.2,37.4,93,29.90,6.0,East,11.5,18.4,0.01,Rain,Light Rain,90,2013-04-18 09:28:00
5:54 AM,39.0,37.0,93,29.90,6.0,ESE,12.7,20.7,0.04,Rain,Light Rain,110,2013-04-18 09:54:00
6:54 AM,37.9,36.0,93,29.88,6.0,ESE,16.1,23.0,0.11,Rain,Light Rain,110,2013-04-18 10:54:00
7:04 AM,37.4,35.6,93,29.85,6.0,ESE,12.7,21.9,0.02,Rain,Rain,120,2013-04-18 11:04:00
7:54 AM,37.9,36.0,93,29.84,3.0,ESE,13.8,19.6,0.22,Rain,Rain,120,2013-04-18 11:54:00
8:54 AM,37.9,37.0,97,29.76,5.0,ESE,12.7,-,0.11,Rain,Light Rain,110,2013-04-18 12:54:00
9:54 AM,39.0,37.9,96,29.70,6.0,East,12.7,19.6,0.07,Rain,Light Rain,100,2013-04-18 13:54:00
10:54 AM,39.0,39.0,100,29.68,6.0,ENE,4.6,-,0.02,Rain,Light Rain,60,2013-04-18 14:54:00
11:54 AM,41.0,39.0,93,29.67,4.0,Calm,Calm,-,0.01,Rain,Light Rain,0,2013-04-18 15:54:00
12:04 PM,41.0,39.2,93,29.64,2.5,Calm,Calm,-,0.00,Rain,Light Rain,0,2013-04-18 16:04:00
12:16 PM,41.0,39.2,93,29.62,3.0,ENE,3.5,-,0.00,,Overcast,70,2013-04-18 16:16:00
12:47 PM,42.8,41.0,93,29.60,2.0,Calm,Calm,-,0.00,Rain,Light Rain,0,2013-04-18 16:47:00
12:54 PM,42.1,41.0,96,29.62,1.2,Calm,Calm,-,0.00,,Overcast,0,2013-04-18 16:54:00
1:03 PM,42.8,41.0,93,29.64,1.2,WSW,4.6,-,0.01,Rain-Thunderstorm,Thunderstorms and Rain,240,2013-04-18 17:03:00
1:28 PM,42.8,41.0,93,29.58,2.5,NNE,5.8,-,0.12,Rain-Thunderstorm,Light Thunderstorms and Rain,30,2013-04-18 17:28:00
1:35 PM,42.8,41.0,93,29.57,4.0,NNE,5.8,-,0.12,Rain-Thunderstorm,Light Thunderstorms and Rain,20,2013-04-18 17:35:00
1:52 PM,42.8,41.0,93,29.60,1.8,Calm,Calm,-,0.16,Rain-Thunderstorm,Thunderstorms and Rain,0,2013-04-18 17:52:00
1:54 PM,42.1,41.0,96,29.61,1.8,Calm,Calm,-,0.17,Rain-Thunderstorm,Thunderstorms and Rain,0,2013-04-18 17:54:00
2:10 PM,42.8,42.8,100,29.51,3.0,NNE,6.9,-,0.06,Rain-Thunderstorm,Light Thunderstorms and Rain,30,2013-04-18 18:10:00
2:17 PM,44.6,42.8,93,29.53,9.0,NE,3.5,-,0.06,Rain,Light Rain,40,2013-04-18 18:17:00
2:54 PM,45.0,43.0,93,29.54,6.0,North,5.8,-,0.07,Rain,Light Rain,360,2013-04-18 18:54:00
3:54 PM,44.1,43.0,96,29.57,4.0,NNW,4.6,-,0.01,Rain,Light Rain,330,2013-04-18 19:54:00
4:54 PM,45.0,43.0,93,29.57,10.0,Calm,Calm,-,0.01,,Overcast,0,2013-04-18 20:54:00
5:54 PM,46.0,44.1,93,29.57,10.0,Calm,Calm,-,N/A,,Overcast,0,2013-04-18 21:54:00
6:54 PM,46.9,45.0,93,29.58,10.0,South,3.5,-,N/A,,Overcast,190,2013-04-18 22:54:00
7:37 PM,46.4,44.6,93,29.56,2.0,Calm,Calm,-,0.00,Rain,Light Rain,0,2013-04-18 23:37:00
7:54 PM,46.0,45.0,96,29.58,2.5,Calm,Calm,-,0.00,Rain,Light Rain,0,2013-04-18 23:54:00
8:10 PM,46.4,44.6,93,29.57,2.5,North,4.6,-,0.01,Rain,Light Rain,10,2013-04-19 00:10:00
8:22 PM,46.4,44.6,93,29.56,3.0,NNE,3.5,-,0.01,Rain,Light Rain,30,2013-04-19 00:22:00
8:38 PM,46.4,44.6,93,29.56,2.5,NE,3.5,-,0.02,Rain,Light Rain,40,2013-04-19 00:38:00
8:54 PM,46.0,45.0,96,29.57,2.0,NE,3.5,-,0.03,Rain,Light Rain,50,2013-04-19 00:54:00
9:12 PM,46.4,44.6,93,29.55,4.0,NE,3.5,-,0.00,Rain,Light Rain,50,2013-04-19 01:12:00
9:22 PM,46.4,44.6,93,29.54,7.0,East,4.6,-,0.00,,Overcast,80,2013-04-19 01:22:00
9:54 PM,45.0,44.1,97,29.54,6.0,East,4.6,-,0.00,,Overcast,100,2013-04-19 01:54:00
10:06 PM,44.6,44.6,100,29.54,1.8,SE,5.8,-,N/A,,Overcast,140,2013-04-19 02:06:00
10:54 PM,42.1,42.1,100,29.56,3.0,Calm,Calm,-,0.04,Rain,Light Rain,0,2013-04-19 02:54:00
11:13 PM,42.8,41.0,93,29.53,2.5,ESE,3.5,-,0.01,Rain,Light Rain,120,2013-04-19 03:13:00
11:21 PM,42.8,41.0,93,29.53,4.0,SE,3.5,-,0.01,Rain,Light Rain,130,2013-04-19 03:21:00
11:54 PM,42.1,41.0,96,29.52,6.0,ESE,4.6,-,0.02,,Overcast,120,2013-04-19 03:54:00